sensor_id;sensor_type;location;lat;lon;timestamp;pressure;altitude;pressure_sealevel;temperature;humidity
1029;BME280;503;48.120;11.488;2022-08-25T00:00:42;95542.75;;;22.10;58.05
1029;BME280;503;48.120;11.488;2022-08-25T00:03:08;95545.06;;;22.08;58.21
1029;BME280;503;48.120;11.488;2022-08-25T00:05:34;95525.06;;;21.86;58.42
1029;BME280;503;48.120;11.488;2022-08-25T00:08:01;95531.69;;;21.92;58.58
1029;BME280;503;48.120;11.488;2022-08-25T00:10:27;95524.16;;;21.78;58.92
1029;BME280;503;48.120;11.488;2022-08-25T00:12:53;95519.16;;;21.80;58.71
1029;BME280;503;48.120;11.488;2022-08-25T00:15:18;95496.53;;;21.65;58.97
1029;BME280;503;48.120;11.488;2022-08-25T00:17:44;95522.28;;;21.82;58.98
1029;BME280;503;48.120;11.488;2022-08-25T00:20:09;95524.56;;;21.80;58.96
1029;BME280;503;48.120;11.488;2022-08-25T00:22:35;95535.88;;;21.86;59.18
1029;BME280;503;48.120;11.488;2022-08-25T00:25:00;95513.66;;;21.73;59.34
1029;BME280;503;48.120;11.488;2022-08-25T00:27:26;95507.38;;;21.65;59.26
1029;BME280;503;48.120;11.488;2022-08-25T00:29:51;95512.28;;;21.60;59.93
1029;BME280;503;48.120;11.488;2022-08-25T00:32:17;95502.59;;;21.55;59.70
1029;BME280;503;48.120;11.488;2022-08-25T00:34:43;95513.03;;;21.57;60.01
1029;BME280;503;48.120;11.488;2022-08-25T00:37:09;95520.47;;;21.63;59.96
1029;BME280;503;48.120;11.488;2022-08-25T00:39:35;95536.72;;;21.63;60.02
1029;BME280;503;48.120;11.488;2022-08-25T00:42:01;95501.41;;;21.29;60.74
1029;BME280;503;48.120;11.488;2022-08-25T00:44:29;95518.75;;;21.51;60.49
1029;BME280;503;48.120;11.488;2022-08-25T00:46:57;95477.31;;;21.21;60.31
1029;BME280;503;48.120;11.488;2022-08-25T00:49:31;95510.13;;;21.42;60.65
1029;BME280;503;48.120;11.488;2022-08-25T00:52:02;95521.53;;;21.55;60.52
1029;BME280;503;48.120;11.488;2022-08-25T00:54:39;95500.75;;;21.36;60.22
1029;BME280;503;48.120;11.488;2022-08-25T00:57:08;95441.34;;;20.94;60.64
1029;BME280;503;48.120;11.488;2022-08-25T00:59:34;95517.53;;;21.45;60.63
1029;BME280;503;48.120;11.488;2022-08-25T01:02:00;95470.28;;;21.16;60.64
1029;BME280;503;48.120;11.488;2022-08-25T01:04:26;95485.88;;;21.26;60.76
1029;BME280;503;48.120;11.488;2022-08-25T01:06:52;95502.69;;;21.36;60.67
1029;BME280;503;48.120;11.488;2022-08-25T01:09:18;95518.84;;;21.32;60.88
1029;BME280;503;48.120;11.488;2022-08-25T01:11:44;95456.44;;;20.95;61.36
1029;BME280;503;48.120;11.488;2022-08-25T01:14:13;95510.53;;;21.21;61.58
1029;BME280;503;48.120;11.488;2022-08-25T01:16:39;95503.44;;;21.13;61.64
1029;BME280;503;48.120;11.488;2022-08-25T01:19:07;95440.19;;;20.68;61.64
1029;BME280;503;48.120;11.488;2022-08-25T01:21:44;95405.53;;;20.32;62.14
1029;BME280;503;48.120;11.488;2022-08-25T01:24:16;95506.25;;;20.94;62.03
1029;BME280;503;48.120;11.488;2022-08-25T01:26:45;95497.53;;;20.81;62.31
1029;BME280;503;48.120;11.488;2022-08-25T01:29:10;95457.81;;;20.62;62.16
1029;BME280;503;48.120;11.488;2022-08-25T01:31:45;95514.06;;;20.99;62.33
1029;BME280;503;48.120;11.488;2022-08-25T01:34:11;95510.50;;;20.95;62.29
1029;BME280;503;48.120;11.488;2022-08-25T01:36:38;95509.00;;;20.97;62.27
1029;BME280;503;48.120;11.488;2022-08-25T01:39:04;95448.75;;;20.51;62.22
1029;BME280;503;48.120;11.488;2022-08-25T01:44:04;95515.16;;;20.94;62.20
1029;BME280;503;48.120;11.488;2022-08-25T01:46:33;95512.31;;;20.87;62.28
1029;BME280;503;48.120;11.488;2022-08-25T01:49:00;95491.06;;;20.63;62.60
1029;BME280;503;48.120;11.488;2022-08-25T01:51:29;95401.59;;;20.06;62.35
1029;BME280;503;48.120;11.488;2022-08-25T01:53:57;95490.38;;;20.69;62.18
1029;BME280;503;48.120;11.488;2022-08-25T01:56:22;95447.69;;;20.36;62.66
1029;BME280;503;48.120;11.488;2022-08-25T01:58:48;95486.47;;;20.67;62.49
1029;BME280;503;48.120;11.488;2022-08-25T02:01:19;95498.59;;;20.76;62.52
1029;BME280;503;48.120;11.488;2022-08-25T02:03:48;95449.47;;;20.48;62.48
1029;BME280;503;48.120;11.488;2022-08-25T02:06:17;95502.81;;;20.74;62.81
1029;BME280;503;48.120;11.488;2022-08-25T02:08:43;95494.34;;;20.75;62.57
1029;BME280;503;48.120;11.488;2022-08-25T02:11:10;95396.19;;;20.06;62.59
1029;BME280;503;48.120;11.488;2022-08-25T02:13:37;95493.50;;;20.71;62.59
1029;BME280;503;48.120;11.488;2022-08-25T02:16:03;95454.72;;;20.41;62.27
1029;BME280;503;48.120;11.488;2022-08-25T02:18:29;95498.78;;;20.64;62.60
1029;BME280;503;48.120;11.488;2022-08-25T02:20:54;95505.63;;;20.58;62.75
1029;BME280;503;48.120;11.488;2022-08-25T02:23:20;95484.44;;;20.41;63.00
1029;BME280;503;48.120;11.488;2022-08-25T02:25:45;95490.00;;;20.48;63.38
1029;BME280;503;48.120;11.488;2022-08-25T02:28:11;95450.97;;;20.26;63.03
1029;BME280;503;48.120;11.488;2022-08-25T02:30:37;95499.78;;;20.56;63.05
1029;BME280;503;48.120;11.488;2022-08-25T02:33:03;95474.84;;;20.43;63.19
1029;BME280;503;48.120;11.488;2022-08-25T02:35:29;95501.59;;;20.48;63.18
1029;BME280;503;48.120;11.488;2022-08-25T02:37:54;95467.25;;;20.30;63.21
1029;BME280;503;48.120;11.488;2022-08-25T02:40:20;95505.94;;;20.53;63.37
1029;BME280;503;48.120;11.488;2022-08-25T02:42:49;95501.66;;;20.52;63.86
1029;BME280;503;48.120;11.488;2022-08-25T02:45:16;95488.88;;;20.49;63.81
1029;BME280;503;48.120;11.488;2022-08-25T02:47:43;95501.31;;;20.54;64.23
1029;BME280;503;48.120;11.488;2022-08-25T02:50:08;95448.63;;;20.24;63.95
1029;BME280;503;48.120;11.488;2022-08-25T02:52:34;95431.09;;;20.15;64.43
1029;BME280;503;48.120;11.488;2022-08-25T02:55:01;95438.53;;;20.21;64.20
1029;BME280;503;48.120;11.488;2022-08-25T02:57:29;95467.38;;;20.37;64.93
1029;BME280;503;48.120;11.488;2022-08-25T02:59:54;95459.69;;;20.39;64.85
1029;BME280;503;48.120;11.488;2022-08-25T03:02:20;95453.22;;;20.43;64.66
1029;BME280;503;48.120;11.488;2022-08-25T03:04:45;95457.84;;;20.43;64.69
1029;BME280;503;48.120;11.488;2022-08-25T03:07:12;95480.53;;;20.58;64.82
1029;BME280;503;48.120;11.488;2022-08-25T03:09:37;95444.88;;;20.29;65.11
1029;BME280;503;48.120;11.488;2022-08-25T03:12:03;95482.69;;;20.48;65.68
1029;BME280;503;48.120;11.488;2022-08-25T03:14:28;95464.66;;;20.37;65.57
1029;BME280;503;48.120;11.488;2022-08-25T03:16:55;95447.50;;;20.25;65.45
1029;BME280;503;48.120;11.488;2022-08-25T03:19:20;95483.88;;;20.51;65.41
1029;BME280;503;48.120;11.488;2022-08-25T03:21:45;95486.16;;;20.49;65.40
1029;BME280;503;48.120;11.488;2022-08-25T03:24:11;95479.63;;;20.50;65.23
1029;BME280;503;48.120;11.488;2022-08-25T03:26:37;95470.59;;;20.42;65.27
1029;BME280;503;48.120;11.488;2022-08-25T03:29:22;95480.75;;;20.49;65.25
1029;BME280;503;48.120;11.488;2022-08-25T03:31:49;95477.28;;;20.48;65.20
1029;BME280;503;48.120;11.488;2022-08-25T03:34:16;95450.91;;;20.22;65.76
1029;BME280;503;48.120;11.488;2022-08-25T03:36:44;95463.66;;;20.45;65.48
1029;BME280;503;48.120;11.488;2022-08-25T03:39:09;95404.31;;;20.06;65.49
1029;BME280;503;48.120;11.488;2022-08-25T03:41:35;95435.53;;;20.26;65.27
1029;BME280;503;48.120;11.488;2022-08-25T03:44:02;95420.22;;;20.11;65.44
1029;BME280;503;48.120;11.488;2022-08-25T03:46:32;95444.56;;;20.34;65.39
1029;BME280;503;48.120;11.488;2022-08-25T03:49:00;95464.81;;;20.44;65.56
1029;BME280;503;48.120;11.488;2022-08-25T03:51:28;95468.66;;;20.43;65.56
1029;BME280;503;48.120;11.488;2022-08-25T03:53:55;95449.50;;;20.29;66.01
1029;BME280;503;48.120;11.488;2022-08-25T03:56:21;95447.19;;;20.31;65.90
1029;BME280;503;48.120;11.488;2022-08-25T03:58:46;95424.78;;;20.07;65.82
1029;BME280;503;48.120;11.488;2022-08-25T04:01:12;95459.56;;;20.32;65.86
1029;BME280;503;48.120;11.488;2022-08-25T04:03:38;95466.59;;;20.36;65.93
1029;BME280;503;48.120;11.488;2022-08-25T04:06:05;95454.44;;;20.26;65.86
1029;BME280;503;48.120;11.488;2022-08-25T04:08:31;95435.78;;;20.18;65.75
1029;BME280;503;48.120;11.488;2022-08-25T04:10:56;95461.44;;;20.28;65.90
1029;BME280;503;48.120;11.488;2022-08-25T04:13:22;95463.41;;;20.31;65.42
1029;BME280;503;48.120;11.488;2022-08-25T04:15:47;95474.22;;;20.31;64.48
1029;BME280;503;48.120;11.488;2022-08-25T04:18:13;95469.38;;;20.20;63.72
1029;BME280;503;48.120;11.488;2022-08-25T04:20:39;95471.38;;;20.23;63.46
1029;BME280;503;48.120;11.488;2022-08-25T04:23:06;95477.84;;;20.19;63.42
1029;BME280;503;48.120;11.488;2022-08-25T04:25:31;95439.00;;;19.85;63.41
1029;BME280;503;48.120;11.488;2022-08-25T04:27:58;95466.78;;;20.05;63.28
1029;BME280;503;48.120;11.488;2022-08-25T04:30:23;95449.03;;;19.84;63.51
1029;BME280;503;48.120;11.488;2022-08-25T04:32:48;95472.25;;;19.89;63.61
1029;BME280;503;48.120;11.488;2022-08-25T04:35:14;95453.91;;;19.79;63.45
1029;BME280;503;48.120;11.488;2022-08-25T04:37:40;95458.63;;;19.82;63.01
1029;BME280;503;48.120;11.488;2022-08-25T04:40:06;95476.22;;;19.95;63.16
1029;BME280;503;48.120;11.488;2022-08-25T04:42:32;95444.25;;;19.78;62.96
1029;BME280;503;48.120;11.488;2022-08-25T04:44:57;95462.97;;;19.86;62.79
1029;BME280;503;48.120;11.488;2022-08-25T04:47:24;95452.44;;;19.81;62.62
1029;BME280;503;48.120;11.488;2022-08-25T04:49:50;95461.81;;;19.87;62.64
1029;BME280;503;48.120;11.488;2022-08-25T04:52:15;95448.53;;;19.79;62.51
1029;BME280;503;48.120;11.488;2022-08-25T04:54:41;95470.53;;;20.00;62.53
1029;BME280;503;48.120;11.488;2022-08-25T04:57:07;95449.88;;;19.88;62.09
1029;BME280;503;48.120;11.488;2022-08-25T04:59:32;95447.66;;;19.94;61.89
1029;BME280;503;48.120;11.488;2022-08-25T05:01:58;95459.91;;;20.07;61.89
1029;BME280;503;48.120;11.488;2022-08-25T05:04:26;95462.34;;;20.16;61.93
1029;BME280;503;48.120;11.488;2022-08-25T05:06:51;95454.63;;;20.14;61.86
1029;BME280;503;48.120;11.488;2022-08-25T05:09:17;95434.16;;;20.13;61.06
1029;BME280;503;48.120;11.488;2022-08-25T05:11:42;95460.38;;;20.32;60.87
1029;BME280;503;48.120;11.488;2022-08-25T05:14:07;95458.19;;;20.41;60.43
1029;BME280;503;48.120;11.488;2022-08-25T05:16:36;95474.56;;;20.48;60.78
1029;BME280;503;48.120;11.488;2022-08-25T05:19:03;95434.84;;;20.30;60.39
1029;BME280;503;48.120;11.488;2022-08-25T05:21:29;95445.19;;;20.47;60.46
1029;BME280;503;48.120;11.488;2022-08-25T05:23:58;95464.81;;;20.63;60.58
1029;BME280;503;48.120;11.488;2022-08-25T05:26:25;95366.88;;;20.05;60.31
1029;BME280;503;48.120;11.488;2022-08-25T05:28:53;95457.56;;;20.71;60.27
1029;BME280;503;48.120;11.488;2022-08-25T05:31:19;95462.00;;;20.83;60.34
1029;BME280;503;48.120;11.488;2022-08-25T05:33:45;95441.91;;;20.80;60.63
1029;BME280;503;48.120;11.488;2022-08-25T05:36:12;95471.69;;;21.07;60.83
1029;BME280;503;48.120;11.488;2022-08-25T05:38:38;95440.75;;;21.04;60.39
1029;BME280;503;48.120;11.488;2022-08-25T05:41:07;95461.44;;;21.19;61.02
1029;BME280;503;48.120;11.488;2022-08-25T05:43:36;95458.06;;;20.99;62.22
1029;BME280;503;48.120;11.488;2022-08-25T05:46:02;95457.28;;;21.25;62.15
1029;BME280;503;48.120;11.488;2022-08-25T05:48:27;95423.13;;;21.40;61.75
1029;BME280;503;48.120;11.488;2022-08-25T05:50:55;95425.81;;;21.40;61.58
1029;BME280;503;48.120;11.488;2022-08-25T05:53:21;95389.94;;;21.47;61.27
1029;BME280;503;48.120;11.488;2022-08-25T05:55:47;95437.63;;;21.89;60.89
1029;BME280;503;48.120;11.488;2022-08-25T05:58:13;95428.41;;;21.93;60.28
1029;BME280;503;48.120;11.488;2022-08-25T06:00:38;95424.66;;;22.05;60.39
1029;BME280;503;48.120;11.488;2022-08-25T06:03:04;95454.38;;;22.31;60.05
1029;BME280;503;48.120;11.488;2022-08-25T06:05:30;95454.56;;;22.49;59.50
1029;BME280;503;48.120;11.488;2022-08-25T06:07:56;95448.38;;;22.49;59.04
1029;BME280;503;48.120;11.488;2022-08-25T06:10:22;95431.69;;;22.43;59.44
1029;BME280;503;48.120;11.488;2022-08-25T06:12:48;95447.66;;;22.55;59.02
1029;BME280;503;48.120;11.488;2022-08-25T06:15:17;95405.28;;;22.37;59.24
1029;BME280;503;48.120;11.488;2022-08-25T06:17:43;95420.16;;;22.53;58.98
1029;BME280;503;48.120;11.488;2022-08-25T06:20:11;95424.13;;;22.63;59.04
1029;BME280;503;48.120;11.488;2022-08-25T06:22:37;95421.06;;;22.72;58.54
1029;BME280;503;48.120;11.488;2022-08-25T06:25:04;95424.59;;;22.76;58.28
1029;BME280;503;48.120;11.488;2022-08-25T06:27:29;95435.91;;;22.85;58.29
1029;BME280;503;48.120;11.488;2022-08-25T06:29:55;95431.34;;;22.93;57.79
1029;BME280;503;48.120;11.488;2022-08-25T06:32:20;95419.72;;;22.92;56.87
1029;BME280;503;48.120;11.488;2022-08-25T06:34:46;95454.38;;;23.17;56.63
1029;BME280;503;48.120;11.488;2022-08-25T06:37:11;95441.66;;;23.24;56.62
1029;BME280;503;48.120;11.488;2022-08-25T06:39:37;95404.81;;;22.72;56.48
1029;BME280;503;48.120;11.488;2022-08-25T06:42:02;95437.56;;;22.97;56.63
1029;BME280;503;48.120;11.488;2022-08-25T06:44:28;95403.53;;;23.06;56.56
1029;BME280;503;48.120;11.488;2022-08-25T06:46:53;95411.81;;;23.24;56.27
1029;BME280;503;48.120;11.488;2022-08-25T06:49:19;95420.34;;;23.26;55.41
1029;BME280;503;48.120;11.488;2022-08-25T06:51:44;95427.44;;;23.49;55.61
1029;BME280;503;48.120;11.488;2022-08-25T06:54:10;95443.41;;;23.61;54.83
1029;BME280;503;48.120;11.488;2022-08-25T06:56:38;95412.28;;;23.41;54.94
1029;BME280;503;48.120;11.488;2022-08-25T06:59:05;95454.72;;;23.67;55.07
1029;BME280;503;48.120;11.488;2022-08-25T07:01:31;95442.72;;;23.71;54.84
1029;BME280;503;48.120;11.488;2022-08-25T07:03:58;95449.72;;;23.72;54.83
1029;BME280;503;48.120;11.488;2022-08-25T07:06:28;95457.53;;;23.81;54.75
1029;BME280;503;48.120;11.488;2022-08-25T07:08:55;95438.88;;;23.79;54.42
1029;BME280;503;48.120;11.488;2022-08-25T07:11:20;95426.44;;;23.78;54.24
1029;BME280;503;48.120;11.488;2022-08-25T07:13:47;95441.16;;;23.67;54.56
1029;BME280;503;48.120;11.488;2022-08-25T07:16:13;95451.00;;;24.03;54.35
1029;BME280;503;48.120;11.488;2022-08-25T07:18:43;95452.19;;;24.09;53.97
1029;BME280;503;48.120;11.488;2022-08-25T07:21:09;95458.47;;;24.31;53.60
1029;BME280;503;48.120;11.488;2022-08-25T07:23:35;95432.88;;;24.36;52.84
1029;BME280;503;48.120;11.488;2022-08-25T07:26:28;95438.31;;;24.36;52.56
1029;BME280;503;48.120;11.488;2022-08-25T07:28:55;95446.09;;;24.41;52.36
1029;BME280;503;48.120;11.488;2022-08-25T07:31:21;95427.84;;;24.56;52.21
1029;BME280;503;48.120;11.488;2022-08-25T07:33:46;95441.84;;;24.61;52.38
1029;BME280;503;48.120;11.488;2022-08-25T07:36:32;95437.53;;;24.46;51.80
1029;BME280;503;48.120;11.488;2022-08-25T07:38:58;95416.22;;;24.52;51.92
1029;BME280;503;48.120;11.488;2022-08-25T07:41:24;95436.78;;;24.60;52.40
1029;BME280;503;48.120;11.488;2022-08-25T07:43:49;95368.38;;;24.22;51.80
1029;BME280;503;48.120;11.488;2022-08-25T07:46:15;95418.16;;;24.48;51.66
1029;BME280;503;48.120;11.488;2022-08-25T07:48:40;95429.81;;;24.66;51.71
1029;BME280;503;48.120;11.488;2022-08-25T07:51:08;95457.75;;;24.49;51.54
1029;BME280;503;48.120;11.488;2022-08-25T07:53:34;95416.97;;;24.59;51.37
1029;BME280;503;48.120;11.488;2022-08-25T07:55:59;95397.97;;;24.63;51.05
1029;BME280;503;48.120;11.488;2022-08-25T07:58:24;95408.06;;;24.95;50.89
1029;BME280;503;48.120;11.488;2022-08-25T08:00:50;95426.72;;;25.21;50.67
1029;BME280;503;48.120;11.488;2022-08-25T08:03:17;95441.06;;;25.50;50.37
1029;BME280;503;48.120;11.488;2022-08-25T08:05:43;95418.94;;;25.34;49.93
1029;BME280;503;48.120;11.488;2022-08-25T08:08:09;95442.22;;;25.56;49.25
1029;BME280;503;48.120;11.488;2022-08-25T08:10:38;95429.06;;;25.19;49.44
1029;BME280;503;48.120;11.488;2022-08-25T08:13:03;95452.38;;;24.77;50.63
1029;BME280;503;48.120;11.488;2022-08-25T08:15:29;95455.09;;;25.20;49.94
1029;BME280;503;48.120;11.488;2022-08-25T08:17:54;95437.97;;;25.34;49.48
1029;BME280;503;48.120;11.488;2022-08-25T08:20:20;95408.03;;;25.30;48.83
1029;BME280;503;48.120;11.488;2022-08-25T08:22:45;95438.72;;;25.49;48.54
1029;BME280;503;48.120;11.488;2022-08-25T08:25:11;95409.94;;;25.48;48.73
1029;BME280;503;48.120;11.488;2022-08-25T08:27:36;95419.97;;;25.72;48.64
1029;BME280;503;48.120;11.488;2022-08-25T08:30:04;95417.22;;;25.90;47.96
1029;BME280;503;48.120;11.488;2022-08-25T08:32:30;95430.28;;;26.20;47.72
1029;BME280;503;48.120;11.488;2022-08-25T08:34:56;95408.91;;;26.15;47.44
1029;BME280;503;48.120;11.488;2022-08-25T08:37:21;95433.97;;;25.74;48.78
1029;BME280;503;48.120;11.488;2022-08-25T08:39:47;95429.94;;;26.14;47.97
1029;BME280;503;48.120;11.488;2022-08-25T08:47:16;95424.69;;;25.64;49.22
1029;BME280;503;48.120;11.488;2022-08-25T08:52:46;95420.44;;;25.49;49.91
1029;BME280;503;48.120;11.488;2022-08-25T08:55:36;95417.63;;;25.81;49.23
1029;BME280;503;48.120;11.488;2022-08-25T08:58:19;95406.22;;;26.08;48.71
1029;BME280;503;48.120;11.488;2022-08-25T09:00:48;95397.03;;;25.70;49.12
1029;BME280;503;48.120;11.488;2022-08-25T09:03:32;95409.63;;;26.26;48.05
1029;BME280;503;48.120;11.488;2022-08-25T09:06:02;95398.22;;;26.49;47.34
1029;BME280;503;48.120;11.488;2022-08-25T09:08:30;95369.44;;;26.37;46.81
1029;BME280;503;48.120;11.488;2022-08-25T09:16:31;95407.00;;;26.71;47.12
1029;BME280;503;48.120;11.488;2022-08-25T09:19:32;95410.31;;;26.96;46.82
1029;BME280;503;48.120;11.488;2022-08-25T09:30:11;95394.59;;;27.11;45.54
1029;BME280;503;48.120;11.488;2022-08-25T09:32:45;95402.50;;;26.99;45.35
1029;BME280;503;48.120;11.488;2022-08-25T09:35:22;95395.50;;;26.98;46.05
1029;BME280;503;48.120;11.488;2022-08-25T09:38:08;95409.41;;;27.14;46.00
1029;BME280;503;48.120;11.488;2022-08-25T09:40:38;95409.13;;;27.42;45.63
1029;BME280;503;48.120;11.488;2022-08-25T09:43:20;95413.47;;;27.40;45.17
1029;BME280;503;48.120;11.488;2022-08-25T09:45:49;95408.22;;;27.53;44.42
1029;BME280;503;48.120;11.488;2022-08-25T09:50:49;95399.91;;;27.29;45.77
1029;BME280;503;48.120;11.488;2022-08-25T09:53:16;95389.31;;;26.90;45.67
1029;BME280;503;48.120;11.488;2022-08-25T09:55:43;95378.03;;;26.88;45.53
1029;BME280;503;48.120;11.488;2022-08-25T09:58:19;95384.59;;;26.98;46.06
1029;BME280;503;48.120;11.488;2022-08-25T10:01:03;95381.19;;;27.28;46.02
1029;BME280;503;48.120;11.488;2022-08-25T10:03:29;95380.78;;;27.63;45.32
1029;BME280;503;48.120;11.488;2022-08-25T10:10:59;95373.84;;;28.20;43.39
1029;BME280;503;48.120;11.488;2022-08-25T10:13:43;95372.88;;;28.07;43.74
1029;BME280;503;48.120;11.488;2022-08-25T10:16:23;95382.56;;;28.11;44.31
1029;BME280;503;48.120;11.488;2022-08-25T10:19:10;95374.66;;;27.56;45.78
1029;BME280;503;48.120;11.488;2022-08-25T10:21:38;95374.34;;;27.46;46.01
1029;BME280;503;48.120;11.488;2022-08-25T10:24:05;95365.56;;;27.62;45.52
1029;BME280;503;48.120;11.488;2022-08-25T10:30:10;95366.75;;;28.26;43.84
1029;BME280;503;48.120;11.488;2022-08-25T10:38:34;95365.91;;;27.68;45.30
1029;BME280;503;48.120;11.488;2022-08-25T10:43:34;95358.78;;;27.78;44.57
1029;BME280;503;48.120;11.488;2022-08-25T10:46:16;95336.03;;;27.84;44.75
1029;BME280;503;48.120;11.488;2022-08-25T10:49:09;95342.81;;;28.30;44.26
1029;BME280;503;48.120;11.488;2022-08-25T10:52:02;95347.34;;;28.44;43.63
1029;BME280;503;48.120;11.488;2022-08-25T10:59:46;95342.13;;;28.26;44.53
1029;BME280;503;48.120;11.488;2022-08-25T11:05:25;95334.63;;;28.81;43.27
1029;BME280;503;48.120;11.488;2022-08-25T11:07:53;95334.22;;;29.06;42.35
1029;BME280;503;48.120;11.488;2022-08-25T11:10:40;95308.06;;;29.01;42.18
1029;BME280;503;48.120;11.488;2022-08-25T11:13:16;95316.03;;;28.92;42.26
1029;BME280;503;48.120;11.488;2022-08-25T11:15:57;95324.09;;;29.03;42.47
1029;BME280;503;48.120;11.488;2022-08-25T11:18:24;95319.13;;;29.37;41.72
1029;BME280;503;48.120;11.488;2022-08-25T11:20:58;95325.97;;;29.29;41.55
1029;BME280;503;48.120;11.488;2022-08-25T11:23:45;95315.56;;;28.97;41.24
1029;BME280;503;48.120;11.488;2022-08-25T11:26:17;95300.78;;;28.94;40.85
1029;BME280;503;48.120;11.488;2022-08-25T11:29:05;95321.84;;;28.97;40.63
1029;BME280;503;48.120;11.488;2022-08-25T11:31:38;95324.75;;;29.10;41.28
1029;BME280;503;48.120;11.488;2022-08-25T11:34:08;95316.22;;;29.05;40.68
1029;BME280;503;48.120;11.488;2022-08-25T11:36:36;95307.72;;;28.99;40.94
1029;BME280;503;48.120;11.488;2022-08-25T11:47:39;95308.19;;;29.57;39.82
1029;BME280;503;48.120;11.488;2022-08-25T11:50:26;95298.38;;;28.96;39.42
1029;BME280;503;48.120;11.488;2022-08-25T11:52:57;95294.41;;;29.41;39.50
1029;BME280;503;48.120;11.488;2022-08-25T11:58:31;95303.34;;;29.65;39.19
1029;BME280;503;48.120;11.488;2022-08-25T12:01:00;95267.63;;;29.68;39.02
1029;BME280;503;48.120;11.488;2022-08-25T12:11:49;95294.16;;;29.91;39.79
1029;BME280;503;48.120;11.488;2022-08-25T12:14:19;95302.31;;;29.95;39.92
1029;BME280;503;48.120;11.488;2022-08-25T12:17:05;95304.31;;;29.74;39.96
1029;BME280;503;48.120;11.488;2022-08-25T12:29:54;95287.88;;;29.15;40.17
1029;BME280;503;48.120;11.488;2022-08-25T12:37:24;95301.25;;;30.25;38.62
1029;BME280;503;48.120;11.488;2022-08-25T12:47:44;95283.94;;;30.44;37.78
1029;BME280;503;48.120;11.488;2022-08-25T12:50:42;95290.09;;;30.97;37.05
1029;BME280;503;48.120;11.488;2022-08-25T12:53:21;95224.53;;;30.83;37.09
1029;BME280;503;48.120;11.488;2022-08-25T12:55:58;95287.59;;;31.16;36.31
1029;BME280;503;48.120;11.488;2022-08-25T12:58:31;95266.75;;;31.18;36.86
1029;BME280;503;48.120;11.488;2022-08-25T13:01:46;95274.59;;;30.25;38.43
1029;BME280;503;48.120;11.488;2022-08-25T13:12:26;95271.28;;;31.25;36.59
1029;BME280;503;48.120;11.488;2022-08-25T13:14:56;95246.31;;;31.61;36.26
1029;BME280;503;48.120;11.488;2022-08-25T13:17:31;95276.91;;;31.76;35.51
1029;BME280;503;48.120;11.488;2022-08-25T13:22:39;95245.31;;;30.02;38.88
1029;BME280;503;48.120;11.488;2022-08-25T13:25:05;95271.91;;;30.87;37.70
1029;BME280;503;48.120;11.488;2022-08-25T13:27:32;95256.53;;;30.08;39.34
1029;BME280;503;48.120;11.488;2022-08-25T13:30:02;95186.97;;;29.49;39.28
1029;BME280;503;48.120;11.488;2022-08-25T13:32:32;95094.88;;;29.19;38.86
1029;BME280;503;48.120;11.488;2022-08-25T13:35:11;95264.19;;;30.49;38.56
1029;BME280;503;48.120;11.488;2022-08-25T13:37:38;95100.00;;;29.54;38.31
1029;BME280;503;48.120;11.488;2022-08-25T13:40:10;95261.81;;;30.19;38.85
1029;BME280;503;48.120;11.488;2022-08-25T13:42:41;95222.94;;;29.88;39.14
1029;BME280;503;48.120;11.488;2022-08-25T13:45:11;95200.22;;;29.87;38.61
1029;BME280;503;48.120;11.488;2022-08-25T13:47:40;95125.56;;;29.11;38.68
1029;BME280;503;48.120;11.488;2022-08-25T13:58:03;95236.81;;;29.81;39.04
1029;BME280;503;48.120;11.488;2022-08-25T14:00:30;95249.47;;;30.27;38.24
1029;BME280;503;48.120;11.488;2022-08-25T14:02:57;95230.44;;;30.36;37.60
1029;BME280;503;48.120;11.488;2022-08-25T14:05:40;95253.53;;;30.84;37.27
1029;BME280;503;48.120;11.488;2022-08-25T14:08:25;95239.28;;;31.18;36.59
1029;BME280;503;48.120;11.488;2022-08-25T14:11:25;95247.25;;;31.42;35.88
1029;BME280;503;48.120;11.488;2022-08-25T14:14:03;95236.06;;;31.49;35.82
1029;BME280;503;48.120;11.488;2022-08-25T14:16:31;95233.53;;;31.54;35.44
1029;BME280;503;48.120;11.488;2022-08-25T14:18:59;95245.41;;;31.51;35.72
1029;BME280;503;48.120;11.488;2022-08-25T14:21:28;95254.69;;;31.83;35.86
1029;BME280;503;48.120;11.488;2022-08-25T14:23:55;95225.78;;;31.91;35.63
1029;BME280;503;48.120;11.488;2022-08-25T14:26:21;95230.22;;;31.47;35.89
1029;BME280;503;48.120;11.488;2022-08-25T14:28:47;95241.28;;;32.11;35.46
1029;BME280;503;48.120;11.488;2022-08-25T14:31:34;95219.69;;;32.69;34.31
1029;BME280;503;48.120;11.488;2022-08-25T14:34:14;95213.22;;;33.20;32.84
1029;BME280;503;48.120;11.488;2022-08-25T14:36:40;95227.28;;;33.66;32.46
1029;BME280;503;48.120;11.488;2022-08-25T14:39:07;95216.78;;;33.51;32.42
1029;BME280;503;48.120;11.488;2022-08-25T14:41:35;95231.63;;;33.76;31.82
1029;BME280;503;48.120;11.488;2022-08-25T14:44:02;95229.19;;;33.78;32.01
1029;BME280;503;48.120;11.488;2022-08-25T14:46:31;95233.69;;;34.43;30.80
1029;BME280;503;48.120;11.488;2022-08-25T14:49:00;95214.97;;;34.38;31.60
1029;BME280;503;48.120;11.488;2022-08-25T14:51:28;95229.19;;;34.95;30.93
1029;BME280;503;48.120;11.488;2022-08-25T14:53:57;95183.28;;;34.52;30.08
1029;BME280;503;48.120;11.488;2022-08-25T14:56:23;95195.34;;;34.36;30.31
1029;BME280;503;48.120;11.488;2022-08-25T14:58:49;95193.97;;;32.85;33.05
1029;BME280;503;48.120;11.488;2022-08-25T15:01:15;95196.47;;;33.58;32.19
1029;BME280;503;48.120;11.488;2022-08-25T15:03:44;95209.53;;;34.07;31.80
1029;BME280;503;48.120;11.488;2022-08-25T15:06:13;95168.56;;;33.96;31.07
1029;BME280;503;48.120;11.488;2022-08-25T15:08:39;95174.22;;;34.51;30.19
1029;BME280;503;48.120;11.488;2022-08-25T15:11:23;95205.84;;;34.50;31.00
1029;BME280;503;48.120;11.488;2022-08-25T15:13:49;95192.69;;;34.23;30.55
1029;BME280;503;48.120;11.488;2022-08-25T15:16:22;95219.84;;;33.44;31.71
1029;BME280;503;48.120;11.488;2022-08-25T15:18:48;95187.31;;;32.95;32.01
1029;BME280;503;48.120;11.488;2022-08-25T15:21:14;95218.59;;;33.01;32.58
1029;BME280;503;48.120;11.488;2022-08-25T15:23:39;95147.97;;;32.51;32.98
1029;BME280;503;48.120;11.488;2022-08-25T15:26:04;95193.50;;;32.99;32.15